Impacts TAF Board
For situational awareness. Not to be used for flight planning purposes.
IDs:

KCLT - Charlotte/Douglas In, NC, US

Issued at 0534 UTC 22 Oct 2021
Updated at 0607 UTC 22 Oct 2021
Potential Impact None Slight Moderate High
Time0552Z 22/07Z 22/08Z 22/09Z 22/10Z 22/11Z 22/12Z 22/13Z 22/14Z 22/15Z 22/16Z 22/17Z 22/18Z 22/19Z>>
Type OBS PRVL PRVL PRVL PRVL PRVL PRVL PRVL PRVL PRVL PRVL PRVL PRVL PRVL
VIS 4 >6 >6 >6 >6 >6 >6 >6 >6 >6 >6 >6 >6 >6
CIG 70 70 70 15 15 15 15 23 80 80 80 80 80 80
Cover OVC BKN BKN BKN BKN BKN BKN BKN BKN BKN BKN BKN BKN BKN
FltCat MVFR VFR VFR MVFR MVFR MVFR MVFR MVFR VFR VFR VFR VFR VFR VFR
WX -RA -- -- -- -- -- -- -- -- -- -- -- -- --
WDir 210 210 210 220 220 220 220 240 260 260 260 260 260 260
WSpd 10 8 8 6 6 6 6 5 6 6 6 6 6 6
WGst -- -- -- -- -- -- -- -- -- -- -- -- -- --
Raw TAF
KCLT 220534Z 2206/2312 21008KT P6SM SCT035 BKN070
  TEMPO 2206/2207 5SM -SHRA BR BKN035
  FM220900 22006KT P6SM BKN015
  FM221300 24005KT P6SM BKN023
  FM221400 26006KT P6SM BKN080
  FM222200 32005KT P6SM SCT080
  FM230600 01003KT P6SM FEW150


Raw METAR
KCLT 220552Z 21010KT 4SM -RA SCT031 BKN070 OVC100 20/17 A3001 RMK AO2 RAB47 SLP155 P0000 60000 T02000172 10217 20200 58010
KCLT 220452Z 21008KT 10SM FEW034 SCT043 BKN070 OVC250 20/17 A3002 RMK AO2 SLP159 T02000167 402720117
KCLT 220352Z 21009KT 10SM OVC048 21/16 A3004 RMK AO2 SLP165 T02060161

METAR Board
Radar Display
Forecast Discussion
For situational awareness. Not to be used for flight planning purposes.